createdAt,value
2022-09-05T00:02:35.546Z,18.49
2022-09-05T00:06:01.666Z,18.45
2022-09-05T00:09:01.072Z,18.40
2022-09-05T00:11:57.642Z,18.33
2022-09-05T00:15:16.598Z,18.36
2022-09-05T00:23:17.608Z,18.25
2022-09-05T00:24:29.051Z,18.25
2022-09-05T00:25:33.931Z,18.16
2022-09-05T00:28:38.212Z,18.17
2022-09-05T00:31:55.708Z,18.18
2022-09-05T00:35:16.896Z,18.08
2022-09-05T00:38:15.250Z,18.07
2022-09-05T00:41:09.364Z,18.03
2022-09-05T00:44:03.056Z,17.94
2022-09-05T00:47:04.799Z,17.89
2022-09-05T00:50:00.960Z,17.87
2022-09-05T00:53:07.018Z,17.84
2022-09-05T00:56:08.691Z,17.79
2022-09-05T00:59:27.816Z,17.78
2022-09-05T01:02:30.488Z,17.76
2022-09-05T01:05:41.001Z,17.70
2022-09-05T01:08:53.340Z,17.71
2022-09-05T01:11:54.621Z,17.70
2022-09-05T01:14:59.655Z,17.71
2022-09-05T01:18:19.131Z,17.67
2022-09-05T01:21:39.057Z,17.61
2022-09-05T01:24:48.601Z,17.60
2022-09-05T01:29:13.212Z,17.56
2022-09-05T01:31:16.444Z,17.61
2022-09-05T01:34:18.734Z,17.56
2022-09-05T01:37:26.594Z,17.53
2022-09-05T01:40:26.714Z,17.50
2022-09-05T01:43:46.466Z,17.42
2022-09-05T01:46:44.714Z,17.39
2022-09-05T01:49:44.056Z,17.38
2022-09-05T01:52:59.222Z,17.39
2022-09-05T01:56:11.383Z,17.37
2022-09-05T01:59:24.188Z,17.34
2022-09-05T02:02:39.331Z,17.29
2022-09-05T02:06:14.284Z,17.29
2022-09-05T02:09:33.355Z,17.31
2022-09-05T02:12:31.947Z,17.30
2022-09-05T02:15:29.107Z,17.23
2022-09-05T02:18:24.511Z,17.26
2022-09-05T02:21:25.986Z,17.24
2022-09-05T02:24:23.280Z,17.23
2022-09-05T02:27:43.596Z,17.15
2022-09-05T02:30:38.215Z,17.21
2022-09-05T02:33:48.220Z,17.22
2022-09-05T02:36:46.131Z,17.24
2022-09-05T02:45:01.183Z,17.25
2022-09-05T02:45:09.926Z,17.25
2022-09-05T02:46:21.215Z,17.28
2022-09-05T02:50:36.435Z,17.26
2022-09-05T02:57:38.988Z,17.21
2022-09-05T02:57:41.752Z,17.21
2022-09-05T02:59:36.681Z,17.14
2022-09-05T03:02:36.827Z,17.13
2022-09-05T03:05:33.110Z,17.23
2022-09-05T03:08:48.310Z,17.18
2022-09-05T03:12:29.328Z,17.15
2022-09-05T03:15:44.491Z,17.17
2022-09-05T03:19:18.235Z,17.15
2022-09-05T03:22:43.081Z,17.13
2022-09-05T03:26:26.003Z,17.16
2022-09-05T03:29:45.417Z,17.15
2022-09-05T03:33:18.106Z,17.17
2022-09-05T03:36:46.654Z,17.27
2022-09-05T03:39:52.687Z,17.27
2022-09-05T03:43:07.555Z,17.24
2022-09-05T03:46:13.146Z,17.32
2022-09-05T03:51:17.116Z,17.31
2022-09-05T03:57:11.364Z,17.29
2022-09-05T03:57:21.028Z,17.30
2022-09-05T03:59:48.579Z,17.31
2022-09-05T04:08:06.010Z,17.21
2022-09-05T04:08:15.655Z,17.24
2022-09-05T04:09:50.208Z,17.18
2022-09-05T04:12:50.691Z,17.16
2022-09-05T04:15:47.386Z,17.21
2022-09-05T04:18:50.174Z,17.19
2022-09-05T04:21:48.188Z,17.17
2022-09-05T04:24:46.053Z,17.21
2022-09-05T04:27:47.611Z,17.18
2022-09-05T04:30:45.933Z,17.17
2022-09-05T04:33:45.183Z,17.19
2022-09-05T04:36:38.969Z,17.22
2022-09-05T04:39:33.105Z,17.21
2022-09-05T04:42:25.719Z,17.18
2022-09-05T04:45:24.291Z,17.21
2022-09-05T04:48:22.681Z,17.23
2022-09-05T04:51:39.398Z,17.29
2022-09-05T04:54:43.295Z,17.34
2022-09-05T04:57:40.690Z,17.29
2022-09-05T05:06:04.826Z,17.29
2022-09-05T05:06:13.729Z,17.21
2022-09-05T05:07:09.216Z,17.18
2022-09-05T05:12:11.829Z,17.18
2022-09-05T05:17:59.565Z,17.19
2022-09-05T05:18:15.970Z,17.24
2022-09-05T05:20:42.674Z,17.22
2022-09-05T05:23:16.024Z,17.21
2022-09-05T05:26:11.569Z,17.26
2022-09-05T05:29:09.696Z,17.27
2022-09-05T05:32:03.966Z,17.29
2022-09-05T05:35:01.498Z,17.35
2022-09-05T05:37:58.964Z,17.42
2022-09-05T05:40:56.198Z,17.48
2022-09-05T05:43:48.667Z,17.55
2022-09-05T05:46:42.349Z,17.59
2022-09-05T05:49:49.248Z,17.54
2022-09-05T05:53:06.846Z,17.60
2022-09-05T05:56:26.936Z,17.67
2022-09-05T05:59:36.197Z,17.66
2022-09-05T06:03:25.288Z,17.75
2022-09-05T06:06:23.834Z,17.80
2022-09-05T06:14:49.121Z,17.88
2022-09-05T06:15:08.790Z,17.94
2022-09-05T06:17:44.059Z,17.95
2022-09-05T06:22:08.485Z,18.08
2022-09-05T06:25:20.049Z,18.21
2022-09-05T06:28:23.819Z,18.31
2022-09-05T06:31:31.359Z,18.37
2022-09-05T06:34:47.147Z,18.37
2022-09-05T06:37:47.136Z,18.46
2022-09-05T06:40:49.186Z,18.59
2022-09-05T06:44:12.826Z,18.69
2022-09-05T06:47:23.032Z,18.83
2022-09-05T06:50:29.260Z,18.96
2022-09-05T06:53:57.354Z,19.03
2022-09-05T06:57:05.849Z,19.10
2022-09-05T07:00:21.691Z,19.14
2022-09-05T07:03:41.093Z,19.26
2022-09-05T07:07:01.204Z,19.26
2022-09-05T07:09:59.443Z,19.31
2022-09-05T07:12:56.921Z,19.37
2022-09-05T07:15:57.425Z,19.43
2022-09-05T07:19:03.112Z,19.41
2022-09-05T07:22:46.450Z,19.39
2022-09-05T07:25:37.329Z,19.49
2022-09-05T07:28:31.728Z,19.44
2022-09-05T07:31:37.212Z,19.48
2022-09-05T07:34:33.310Z,19.47
2022-09-05T07:37:34.086Z,19.59
2022-09-05T07:40:27.501Z,19.82
2022-09-05T07:43:23.840Z,20.01
2022-09-05T07:46:23.187Z,20.24
2022-09-05T07:49:18.252Z,20.35
2022-09-05T07:56:51.998Z,20.84
2022-09-05T07:57:06.382Z,20.50
2022-09-05T07:58:45.188Z,20.97
2022-09-05T08:01:40.929Z,20.95
2022-09-05T08:04:34.347Z,20.96
2022-09-05T08:07:46.468Z,21.65
2022-09-05T08:11:25.359Z,22.53
2022-09-05T08:14:43.640Z,22.68
2022-09-05T08:17:26.441Z,22.11
2022-09-05T08:20:32.863Z,21.69
2022-09-05T08:23:52.207Z,21.38
2022-09-05T08:26:47.566Z,21.46
2022-09-05T08:29:41.189Z,21.52
2022-09-05T08:32:41.603Z,21.62
2022-09-05T08:35:42.487Z,21.76
2022-09-05T08:38:40.562Z,21.97
2022-09-05T08:41:49.959Z,22.08
2022-09-05T08:46:40.233Z,22.15
2022-09-05T08:48:38.448Z,22.24
2022-09-05T08:51:43.175Z,22.10
2022-09-05T08:55:05.806Z,22.04
2022-09-05T08:58:07.017Z,22.06
2022-09-05T09:01:08.803Z,22.24
2022-09-05T09:04:39.990Z,22.31
2022-09-05T09:07:50.881Z,22.57
2022-09-05T09:10:54.863Z,22.67
2022-09-05T09:13:54.701Z,22.58
2022-09-05T09:16:59.162Z,22.59
2022-09-05T09:20:05.401Z,22.83
2022-09-05T09:23:00.530Z,23.02
2022-09-05T09:26:05.833Z,23.18
2022-09-05T09:29:02.379Z,23.07
2022-09-05T09:32:02.811Z,22.98
2022-09-05T09:34:58.393Z,23.22
2022-09-05T09:38:13.565Z,23.36
2022-09-05T09:41:37.579Z,23.26
2022-09-05T09:45:27.703Z,23.33
2022-09-05T09:48:41.035Z,23.66
2022-09-05T09:52:02.379Z,23.94
2022-09-05T09:55:28.526Z,23.90
2022-09-05T09:58:46.167Z,23.57
2022-09-05T10:01:54.249Z,23.64
2022-09-05T10:10:35.684Z,23.78
2022-09-05T10:10:55.577Z,23.76
2022-09-05T10:12:18.989Z,24.07
2022-09-05T10:15:31.220Z,24.08
2022-09-05T10:18:40.847Z,23.77
2022-09-05T10:22:34.253Z,23.57
2022-09-05T10:25:28.854Z,23.84
2022-09-05T10:28:27.910Z,23.75
2022-09-05T10:32:47.098Z,23.46
2022-09-05T10:35:10.611Z,23.32
2022-09-05T10:38:10.930Z,23.27
2022-09-05T10:41:20.960Z,23.55
2022-09-05T10:44:14.978Z,23.69
2022-09-05T10:47:18.250Z,23.76
2022-09-05T10:50:21.155Z,23.85
2022-09-05T10:53:39.095Z,24.18
2022-09-05T10:56:36.712Z,24.10
2022-09-05T11:02:18.680Z,23.95
2022-09-05T11:02:47.554Z,23.74
2022-09-05T11:05:52.418Z,23.67
2022-09-05T11:08:53.646Z,23.73
2022-09-05T11:11:53.415Z,23.75
2022-09-05T11:14:52.268Z,23.73
2022-09-05T11:17:55.135Z,23.63
2022-09-05T11:21:00.428Z,23.48
2022-09-05T11:23:57.377Z,23.45
2022-09-05T11:27:23.595Z,23.39
2022-09-05T11:30:30.354Z,23.35
2022-09-05T11:39:50.925Z,23.21
2022-09-05T11:39:59.004Z,23.29
2022-09-05T11:41:24.320Z,23.15
2022-09-05T11:44:37.407Z,23.10
2022-09-05T11:47:58.625Z,23.05
2022-09-05T11:51:33.939Z,23.04
2022-09-05T11:54:55.672Z,22.97
2022-09-05T11:58:27.103Z,23.02
2022-09-05T12:01:43.291Z,23.00
2022-09-05T12:05:48.701Z,22.95
2022-09-05T12:08:08.241Z,22.97
2022-09-05T12:11:09.599Z,22.89
2022-09-05T12:14:13.856Z,22.98
2022-09-05T12:17:34.950Z,23.00
2022-09-05T12:20:37.486Z,23.11
2022-09-05T12:25:15.140Z,23.02
2022-09-05T12:27:44.469Z,23.10
2022-09-05T12:30:26.312Z,23.14
2022-09-05T12:36:01.710Z,23.11
2022-09-05T12:40:30.215Z,23.08
2022-09-05T12:41:36.532Z,23.15
2022-09-05T12:44:39.009Z,23.21
2022-09-05T12:46:52.895Z,23.28
2022-09-05T12:50:02.664Z,23.31
2022-09-05T12:53:01.918Z,23.25
2022-09-05T12:56:24.858Z,23.27
2022-09-05T13:02:56.673Z,23.23
2022-09-05T13:03:05.716Z,23.26
2022-09-05T13:05:52.737Z,23.39
2022-09-05T13:08:59.049Z,23.38
2022-09-05T13:14:52.853Z,23.37
2022-09-05T13:15:26.966Z,23.28
2022-09-05T13:18:23.545Z,23.32
2022-09-05T13:21:23.331Z,23.30
2022-09-05T13:24:23.100Z,23.36
2022-09-05T13:27:17.150Z,23.38
2022-09-05T13:32:37.584Z,23.40
2022-09-05T13:38:12.571Z,23.34
2022-09-05T13:38:20.338Z,23.28
2022-09-05T13:40:09.538Z,23.28
2022-09-05T13:43:26.478Z,23.34
2022-09-05T13:46:23.154Z,23.34
2022-09-05T13:49:25.841Z,23.51
2022-09-05T13:52:29.027Z,23.45
2022-09-05T13:55:24.490Z,23.50
2022-09-05T13:58:22.527Z,23.68
2022-09-05T14:01:32.743Z,23.73
2022-09-05T14:05:06.428Z,23.80
2022-09-05T14:08:33.615Z,23.74
2022-09-05T14:11:52.330Z,23.77
2022-09-05T14:18:18.514Z,23.78
2022-09-05T14:21:16.753Z,23.76
2022-09-05T14:24:14.706Z,23.83
2022-09-05T14:27:12.957Z,23.85
2022-09-05T14:30:35.545Z,23.91
2022-09-05T14:37:49.518Z,23.89
2022-09-05T14:38:01.414Z,23.87
2022-09-05T14:40:46.868Z,23.89
2022-09-05T14:44:17.136Z,23.90
2022-09-05T14:47:34.914Z,23.99
2022-09-05T14:50:59.677Z,23.98
2022-09-05T14:59:32.639Z,24.07
2022-09-05T15:02:41.077Z,24.10
2022-09-05T15:03:21.310Z,24.11
2022-09-05T15:06:21.281Z,24.12
2022-09-05T15:12:18.799Z,24.19
2022-09-05T15:12:46.006Z,24.22
2022-09-05T15:15:45.181Z,24.27
2022-09-05T15:18:53.297Z,24.33
2022-09-05T15:21:46.039Z,24.51
2022-09-05T15:24:37.051Z,24.45
2022-09-05T15:27:29.677Z,24.52
2022-09-05T15:30:34.780Z,24.36
2022-09-05T15:33:29.432Z,24.38
2022-09-05T15:36:32.676Z,24.32
2022-09-05T15:39:27.563Z,24.24
2022-09-05T15:42:22.122Z,24.17
2022-09-05T15:45:19.069Z,24.18
2022-09-05T15:48:18.639Z,24.22
2022-09-05T15:51:20.915Z,24.30
2022-09-05T15:54:37.443Z,24.21
2022-09-05T15:57:34.011Z,24.00
2022-09-05T16:00:42.718Z,23.70
2022-09-05T16:05:53.355Z,23.50
2022-09-05T16:10:37.635Z,23.12
2022-09-05T16:10:43.750Z,23.25
2022-09-05T16:13:52.358Z,22.94
2022-09-05T16:23:19.236Z,22.79
2022-09-05T16:23:20.280Z,22.63
2022-09-05T16:23:32.677Z,22.47
2022-09-05T16:26:26.436Z,22.36
2022-09-05T16:29:26.116Z,22.35
2022-09-05T16:32:23.552Z,22.22
2022-09-05T16:35:18.194Z,22.15
2022-09-05T16:38:33.180Z,22.10
2022-09-05T16:41:40.311Z,21.94
2022-09-05T16:44:37.830Z,21.90
2022-09-05T16:47:36.374Z,21.69
2022-09-05T16:50:34.808Z,21.59
2022-09-05T16:53:32.872Z,21.53
2022-09-05T16:56:30.024Z,21.47
2022-09-05T16:59:24.009Z,21.40
2022-09-05T17:02:28.296Z,21.22
2022-09-05T17:05:29.449Z,21.11
2022-09-05T17:08:25.981Z,21.09
2022-09-05T17:11:29.335Z,21.02
2022-09-05T17:14:24.231Z,21.00
2022-09-05T17:18:18.992Z,20.96
2022-09-05T17:20:37.020Z,21.01
2022-09-05T17:29:18.643Z,20.98
2022-09-05T17:29:29.498Z,21.00
2022-09-05T17:33:19.357Z,20.90
2022-09-05T17:36:18.317Z,20.91
2022-09-05T17:39:44.357Z,20.83
2022-09-05T17:42:46.372Z,20.82
2022-09-05T17:45:47.211Z,20.75
2022-09-05T17:49:18.866Z,20.73
2022-09-05T17:52:29.385Z,20.76
2022-09-05T17:55:20.958Z,20.69
2022-09-05T17:58:22.334Z,20.66
2022-09-05T18:01:26.642Z,20.63
2022-09-05T18:04:48.221Z,20.51
2022-09-05T18:08:00.292Z,20.53
2022-09-05T18:11:13.978Z,20.48
2022-09-05T18:14:29.803Z,20.40
2022-09-05T18:17:59.178Z,20.32
2022-09-05T18:21:14.642Z,20.35
2022-09-05T18:24:17.341Z,20.38
2022-09-05T18:30:36.215Z,20.27
2022-09-05T18:34:04.792Z,20.20
2022-09-05T18:36:40.811Z,20.15
2022-09-05T18:39:43.771Z,20.15
2022-09-05T18:42:39.583Z,20.07
2022-09-05T18:45:33.678Z,20.02
2022-09-05T18:48:31.041Z,20.00
2022-09-05T18:51:28.497Z,20.04
2022-09-05T18:54:29.677Z,20.09
2022-09-05T18:57:29.074Z,20.00
2022-09-05T19:00:35.342Z,20.07
2022-09-05T19:03:38.437Z,20.05
2022-09-05T19:06:37.050Z,19.99
2022-09-05T19:09:32.665Z,19.98
2022-09-05T19:12:34.506Z,19.96
2022-09-05T19:15:32.657Z,19.90
2022-09-05T19:18:27.901Z,19.92
2022-09-05T19:21:22.856Z,19.81
2022-09-05T19:24:30.362Z,19.84
2022-09-05T19:30:05.469Z,19.79
2022-09-05T19:36:48.936Z,19.72
2022-09-05T19:37:06.834Z,19.81
2022-09-05T19:37:41.297Z,19.74
2022-09-05T19:47:27.364Z,19.80
2022-09-05T19:47:40.254Z,19.72
2022-09-05T19:47:50.045Z,19.80
2022-09-05T19:50:31.181Z,19.78
2022-09-05T19:53:23.445Z,19.80
2022-09-05T19:56:15.069Z,19.77
2022-09-05T19:59:18.721Z,19.83
2022-09-05T20:02:19.921Z,19.81
2022-09-05T20:05:18.716Z,19.84
2022-09-05T20:08:14.179Z,19.88
2022-09-05T20:11:09.047Z,19.86
2022-09-05T20:14:17.227Z,19.78
2022-09-05T20:17:28.467Z,19.87
2022-09-05T20:20:25.261Z,19.84
2022-09-05T20:23:16.908Z,19.74
2022-09-05T20:26:10.817Z,19.69
2022-09-05T20:29:04.956Z,19.66
2022-09-05T20:31:59.306Z,19.58
2022-09-05T20:37:24.033Z,19.46
2022-09-05T20:43:14.979Z,19.45
2022-09-05T20:43:32.630Z,19.33
2022-09-05T20:44:42.618Z,19.25
2022-09-05T20:51:17.019Z,19.16
2022-09-05T20:54:16.795Z,19.08
2022-09-05T20:54:32.085Z,19.01
2022-09-05T20:57:23.298Z,18.93
2022-09-05T21:00:17.486Z,18.97
2022-09-05T21:03:09.355Z,18.89
2022-09-05T21:06:12.865Z,18.81
2022-09-05T21:09:24.349Z,18.70
2022-09-05T21:12:27.690Z,18.72
2022-09-05T21:15:31.799Z,18.63
2022-09-05T21:18:34.593Z,18.60
2022-09-05T21:21:30.349Z,18.57
2022-09-05T21:24:24.158Z,18.64
2022-09-05T21:27:18.311Z,18.63
2022-09-05T21:30:23.506Z,18.61
2022-09-05T21:33:33.161Z,18.54
2022-09-05T21:36:38.084Z,18.50
2022-09-05T21:39:31.259Z,18.39
2022-09-05T21:47:07.307Z,18.42
2022-09-05T21:47:41.844Z,18.41
2022-09-05T21:48:46.038Z,18.38
2022-09-05T21:51:48.093Z,18.36
2022-09-05T21:59:15.143Z,18.32
2022-09-05T21:59:17.796Z,18.30
2022-09-05T22:01:08.510Z,18.34
2022-09-05T22:03:59.931Z,18.32
2022-09-05T22:06:54.162Z,18.34
2022-09-05T22:09:45.784Z,18.27
2022-09-05T22:12:38.940Z,18.28
2022-09-05T22:15:32.268Z,18.24
2022-09-05T22:18:24.317Z,18.20
2022-09-05T22:21:31.748Z,18.27
2022-09-05T22:24:30.752Z,18.24
2022-09-05T22:27:24.278Z,18.26
2022-09-05T22:30:15.752Z,18.23
2022-09-05T22:33:07.996Z,18.22
2022-09-05T22:35:59.552Z,18.20
2022-09-05T22:38:51.009Z,18.13
2022-09-05T22:41:43.995Z,18.10
2022-09-05T22:44:35.369Z,18.11
2022-09-05T22:47:29.937Z,18.01
2022-09-05T22:50:21.750Z,18.05
2022-09-05T22:53:13.036Z,18.09
2022-09-05T22:56:06.903Z,18.08
2022-09-05T22:58:59.447Z,17.96
2022-09-05T23:01:51.988Z,17.96
2022-09-05T23:04:43.277Z,18.00
2022-09-05T23:07:35.041Z,17.88
2022-09-05T23:10:26.845Z,17.85
2022-09-05T23:13:18.361Z,17.83
2022-09-05T23:16:11.777Z,17.78
2022-09-05T23:19:03.316Z,17.82
2022-09-05T23:21:54.770Z,17.81
2022-09-05T23:24:46.200Z,17.76
2022-09-05T23:27:39.008Z,17.66
2022-09-05T23:30:30.118Z,17.64
2022-09-05T23:33:22.850Z,17.63
2022-09-05T23:36:14.828Z,17.67
2022-09-05T23:39:06.475Z,17.62
2022-09-05T23:41:57.869Z,17.66
2022-09-05T23:44:49.448Z,17.52
2022-09-05T23:47:40.920Z,17.50
2022-09-05T23:50:33.739Z,17.47
2022-09-05T23:53:25.520Z,17.45
2022-09-05T23:56:16.731Z,17.45
2022-09-05T23:59:08.029Z,17.48
